Flight Track Log - Related Links

Times and Time Zones

All times are in EDT time to prevent confusion due to time zone crossing. See the AAY890 flight status page for this flight to view local times or setup timezone preferences in your user account.

Time Position Orientation Groundspeed Altitude Reporting Facility
EDT Latitude Longitude Course Direction KTS MPH feet Rate Location/Type
Wed 03:58:24 PM 27.9333 -82.6833 12° North 151 174 1,000  Level Tampa TRACON
Wed 03:59:43 PM 28.0000 -82.6667 12° North 232 267 3,100 1,295 Climbing Tampa TRACON
Wed 04:00:43 PM 28.0667 -82.6500 12° North 280 322 4,000 1,804 Climbing Tampa TRACON
Wed 04:02:16 PM 28.1647 -82.6578 356° North 284 327 7,700 2,632 Climbing Miami Center
Wed 04:03:18 PM 28.2419 -82.7206 324° Northwest 286 329 10,800 2,244 Climbing Miami Center
Wed 04:04:19 PM 28.3125 -82.7814 323° Northwest 324 373 12,300 1,463 Climbing Miami Center
Wed 04:05:21 PM 28.3933 -82.8517 323° Northwest 369 425 13,800 1,805 Climbing Miami Center
Wed 04:06:22 PM 28.4922 -82.9072 334° Northwest 406 467 16,000 2,000 Climbing Miami Center
Wed 04:07:24 PM 28.6039 -82.9192 355° North 409 471 17,900 2,071 Climbing Miami Center
Wed 04:08:15 PM 28.7197 -82.9353 353° North 408 470 19,900 1,875 Climbing Jacksonville Center
Wed 04:09:16 PM 28.8428 -82.9519 353° North 429 494 21,400 1,488 Climbing Jacksonville Center
Wed 04:10:16 PM 28.9681 -82.9661 354° North 447 514 22,900 1,513 Climbing Jacksonville Center
Wed 04:11:15 PM 29.0975 -82.9828 354° North 453 521 24,400 1,400 Climbing Jacksonville Center
Wed 04:12:16 PM 29.2269 -82.9997 353° North 463 533 25,700 1,488 Climbing Jacksonville Center
Wed 04:13:16 PM 29.3583 -83.0164 354° North 463 533 27,400 1,563 Climbing Jacksonville Center
Wed 04:14:15 PM 29.4897 -83.0406 351° North 471 542 28,800 1,350 Climbing Jacksonville Center
Wed 04:15:16 PM 29.6150 -83.0597 352° North 460 529 30,100 1,240 Climbing Jacksonville Center
Wed 04:16:16 PM 29.7361 -83.1128 339° North 467 537 31,300 900 Climbing Jacksonville Center
Wed 04:17:16 PM 29.8569 -83.1703 338° Northwest 470 541 31,900 233 Climbing Jacksonville Center
Wed 04:19:16 PM 30.0864 -83.2742 339° North 457 526 32,000  Climbing Jacksonville Center
Wed 04:20:16 PM 30.2072 -83.3300 338° Northwest 457 526 31,900 -50 Descending Jacksonville Center
Wed 04:21:16 PM 30.3281 -83.3883 337° Northwest 462 532 31,900 50 Level Jacksonville Center
Wed 04:22:16 PM 30.4469 -83.4444 338° Northwest 462 532 32,000 50 Climbing Jacksonville Center
Wed 04:23:16 PM 30.5700 -83.5031 338° Northwest 462 532 32,000  Level Jacksonville Center
Wed 04:24:16 PM 30.6908 -83.5569 339° North 462 532 32,000  Level Jacksonville Center
Wed 04:25:16 PM 30.8239 -83.6231 337° Northwest 462 532 32,000  Level Jacksonville Center
Wed 04:26:16 PM 30.9447 -83.6797 338° Northwest 462 532 32,000  Level Jacksonville Center
Wed 04:27:16 PM 31.0656 -83.7389 337° Northwest 462 532 32,000  Level Jacksonville Center
Wed 04:28:16 PM 31.1883 -83.7983 338° Northwest 467 537 32,000  Level Jacksonville Center
Wed 04:30:29 PM 31.4586 -83.9294 338° Northwest 470 541 32,000  Level Atlanta Center
Wed 04:31:29 PM 31.5714 -83.9756 341° North 470 541 32,000  Level Atlanta Center
Wed 04:32:29 PM 31.7028 -84.0047 349° North 470 541 32,000  Level Atlanta Center
Wed 04:33:29 PM 31.8342 -84.0317 350° North 475 547 32,000  Level Atlanta Center
Wed 04:34:29 PM 31.9636 -84.0583 350° North 475 547 32,000  Level Atlanta Center
Wed 04:35:29 PM 32.0931 -84.0856 350° North 475 547 32,000  Level Atlanta Center
Wed 04:36:29 PM 32.2225 -84.1175 348° North 470 541 32,000  Level Atlanta Center
Wed 04:37:29 PM 32.3497 -84.1444 350° North 470 541 32,000  Level Atlanta Center
Wed 04:38:29 PM 32.4792 -84.1742 349° North 470 541 32,000  Level Atlanta Center
Wed 04:39:29 PM 32.6086 -84.2042 349° North 465 535 32,000  Level Atlanta Center
Wed 04:40:29 PM 32.7358 -84.2314 350° North 465 535 32,000  Level Atlanta Center
Wed 04:41:29 PM 32.8611 -84.2564 350° North 465 535 32,000  Level Atlanta Center
Wed 04:42:29 PM 32.9925 -84.2592 359° North 465 535 32,000  Level Atlanta Center
Wed 04:43:29 PM 33.1219 -84.2594 360° North 465 535 32,000  Level Atlanta Center
Wed 04:44:29 PM 33.2492 -84.2600 360° North 458 527 32,000  Level Atlanta Center
Wed 04:45:29 PM 33.3786 -84.2603 360° North 458 527 32,000  Level Atlanta Center
Wed 04:46:29 PM 33.5081 -84.2606 360° North 458 527 32,000  Level Atlanta Center
Wed 04:47:29 PM 33.6500 -84.2658 358° North 463 533 32,000  Level Atlanta Center
Wed 04:48:29 PM 33.7814 -84.2661 360° North 463 533 32,000  Level Atlanta Center
Wed 04:49:29 PM 33.9131 -84.2667 360° North 458 527 32,000  Level Atlanta Center
Wed 04:50:29 PM 34.0403 -84.2694 359° North 458 527 32,000  Level Atlanta Center
Wed 04:51:29 PM 34.1636 -84.2647 North 469 540 32,000  Level Atlanta Center
Wed 04:52:29 PM 34.2908 -84.2650 360° North 474 545 32,000  Level Atlanta Center
Wed 04:53:29 PM 34.4347 -84.2681 359° North 469 540 32,000  Level Atlanta Center
Wed 04:54:29 PM 34.5642 -84.2683 360° North 464 534 32,000  Level Atlanta Center
Wed 04:55:29 PM 34.6914 -84.2711 359° North 459 528 32,000  Level Atlanta Center
Wed 04:56:29 PM 34.8208 -84.2717 360° North 459 528 32,000  Level Atlanta Center
Wed 04:57:29 PM 34.9481 -84.2769 358° North 459 528 32,000  Level Atlanta Center
Wed 04:58:29 PM 35.0756 -84.2772 360° North 459 528 32,000  Level Atlanta Center
Wed 04:59:29 PM 35.2069 -84.2778 360° North 459 528 32,000  Level Atlanta Center
Wed 05:00:29 PM 35.3342 -84.2781 360° North 459 528 32,000  Level Atlanta Center
Wed 05:01:29 PM 35.4656 -84.2811 359° North 459 528 32,000  Level Atlanta Center
Wed 05:02:29 PM 35.5950 -84.2814 360° North 459 528 32,000  Level Atlanta Center
Wed 05:03:29 PM 35.7283 -84.2817 360° North 459 528 32,000  Level Atlanta Center
Wed 05:04:29 PM 35.8578 -84.2847 359° North 459 528 32,000  Level Atlanta Center
Wed 05:05:29 PM 35.9892 -84.2825 North 459 528 32,000  Level Atlanta Center
Wed 05:06:41 PM 36.1386 -84.2842 359° North 469 540 32,000  Level Indianapolis Center
Wed 05:07:43 PM 36.2706 -84.2858 359° North 472 543 32,000  Level Indianapolis Center
Wed 05:08:45 PM 36.4031 -84.2867 360° North 474 545 32,000  Level Indianapolis Center
Wed 05:09:46 PM 36.5447 -84.2886 359° North 474 545 32,000  Level Indianapolis Center
Wed 05:10:48 PM 36.6800 -84.2900 360° North 476 548 32,000  Level Indianapolis Center
Wed 05:11:50 PM 36.8150 -84.2917 359° North 479 551 32,000  Level Indianapolis Center
Wed 05:12:52 PM 36.9700 -84.2931 360° North 478 550 32,000  Level Indianapolis Center
Wed 05:13:53 PM 37.1031 -84.2942 360° North 478 550 32,000  Level Indianapolis Center
Wed 05:14:55 PM 37.2361 -84.2956 360° North 478 550 32,000  Level Indianapolis Center
Wed 05:15:57 PM 37.3686 -84.2975 359° North 476 548 32,000  Level Indianapolis Center
Wed 05:16:58 PM 37.5033 -84.2989 360° North 477 549 32,000  Level Indianapolis Center
Wed 05:18:00 PM 37.6367 -84.3000 360° North 477 549 32,000  Level Indianapolis Center
Wed 05:19:02 PM 37.7711 -84.3011 360° North 477 549 32,000  Level Indianapolis Center
Wed 05:20:03 PM 37.9275 -84.3044 359° North 478 550 32,000  Level Indianapolis Center
Wed 05:21:05 PM 38.0625 -84.3036 360° North 480 552 32,000  Level Indianapolis Center
Wed 05:22:07 PM 38.1983 -84.3053 359° North 483 556 32,000  Level Indianapolis Center
Wed 05:23:08 PM 38.3322 -84.3083 359° North 483 556 32,000  Level Indianapolis Center
Wed 05:24:10 PM 38.4683 -84.3078 360° North 484 557 32,000  Level Indianapolis Center
Wed 05:25:12 PM 38.6039 -84.3108 359° North 484 557 32,000  Level Indianapolis Center
Wed 05:26:13 PM 38.7433 -84.3450 349° North 474 545 32,000  Level Indianapolis Center
Wed 05:27:15 PM 38.8689 -84.3903 344° North 471 542 32,000  Level Indianapolis Center
Wed 05:28:16 PM 38.9931 -84.4369 344° North 469 540 32,000 -683 Level Indianapolis Center
Wed 05:29:18 PM 39.1294 -84.4892 343° North 469 540 30,600 -1,645 Descending Indianapolis Center
Wed 05:30:20 PM 39.2472 -84.5319 344° North 473 544 28,600 -2,049 Descending Indianapolis Center
Wed 05:31:21 PM 39.3747 -84.5789 344° North 474 545 26,400 -1,659 Descending Indianapolis Center
Wed 05:32:23 PM 39.4978 -84.6247 344° North 468 539 25,200 -1,171 Descending Indianapolis Center
Wed 05:33:24 PM 39.6322 -84.6764 344° North 433 498 24,000 -1,317 Descending Indianapolis Center
Wed 05:34:26 PM 39.7436 -84.7178 344° North 422 486 22,500 -1,355 Descending Indianapolis Center
Wed 05:35:28 PM 39.8531 -84.7603 343° North 416 479 21,200 -1,220 Descending Indianapolis Center
Wed 05:36:29 PM 39.9592 -84.8003 344° North 406 467 20,000 -634 Descending Indianapolis Center
Wed 05:37:31 PM 40.0664 -84.8411 344° North 403 464 19,900 -1,220 Descending Indianapolis Center
Wed 05:38:32 PM 40.1744 -84.8817 344° North 403 464 17,500 -3,171 Descending Indianapolis Center
Wed 05:39:34 PM 40.2864 -84.9250 344° North 399 459 13,400 -3,171 Descending Indianapolis Center
Wed 05:40:35 PM 40.3878 -84.9647 343° North 389 448 11,000 -1,171 Descending Indianapolis Center
Wed 05:41:37 PM 40.4767 -84.9981 344° North 346 398 11,000 -98 Level Indianapolis Center
Wed 05:42:38 PM 40.5553 -85.0297 343° North 306 352 10,800 -829 Descending Indianapolis Center
Wed 05:43:40 PM 40.6361 -85.0606 344° North 303 349 9,300 -1,597 Descending Indianapolis Center
Wed 05:44:42 PM 40.7314 -85.0911 346° North 300 345 7,500 -1,561 Descending Indianapolis Center
Wed 05:45:43 PM 40.8000 -85.0294 34° Northeast 295 339 6,100 -1,220 Descending Indianapolis Center
Wed 05:46:45 PM 40.8717 -84.9739 30° Northeast 289 333 5,000 -1,347 Descending Indianapolis Center
Wed 05:48:10 PM 40.9161 -85.0789 299° West 222 255 2,800 -1,306 Descending Chicago Center
Wed 05:49:12 PM 40.9361 -85.1289 298° West 184 212 1,800 -528 Descending Chicago Center
Wed 05:50:15 PM 40.9581 -85.1672 307° West 170 196 1,700 -95 Descending Chicago Center
Wed 05:52:00 PM 40.9667 -85.1833 339° North  Level FlightAware Approximate

Login

Don't have an account? Register now (free) for customized features, flight alerts, and more!